Data for 05/09/2007

Time Sea-Level Adjusted Pressure Absolute Pressure Temperature Relative Humidity Dew Point   
(mb) (inHg) (mb) (inHg) (C) (F) (%) (C) (F)
00:05 1015 29.97 844 24.92 13.5 56.2 34 -1.9 28.5
00:10 1015 29.97 844 24.92 13.4 56 32 -3 26.6
00:15 1015 29.97 844 24.92 13.4 56.1 32 -3.1 26.4
00:20 1015 29.97 844 24.92 13.5 56.3 33 -2.5 27.5
00:25 1015 29.97 844 24.92 13.5 56.3 31 -3.1 26.5
00:30 1015 29.97 844 24.92 13.1 55.6 33 -2.7 27.2
00:35 1015 29.97 844 24.92 13.1 55.5 32 -3.3 26
00:40 1015 29.97 844 24.92 13.3 55.9 32 -2.9 26.7
00:45 1015 29.97 844 24.92 12.9 55.3 33 -3.1 26.5
00:50 1015 29.97 844 24.92 12.9 55.2 32 -3.3 26.1
00:55 1015 29.97 844 24.92 13 55.3 32 -3.3 26.1
01:00 1015 29.97 844 24.92 12.8 55 32 -3.6 25.5
01:05 1015 29.97 844 24.92 13.1 55.5 31 -3.7 25.3
01:10 1015 29.97 844 24.92 13.3 55.9 30 -4 24.8
01:15 1015 29.97 844 24.92 13.4 56.1 31 -3.3 26
01:20 1015 29.97 844 24.92 13.1 55.6 32 -3.2 26.2
01:25 1015 29.97 844 24.92 13 55.5 32 -3.2 26.3
01:30 1015 29.97 844 24.92 13 55.3 32 -3.1 26.4
01:35 1015 29.97 844 24.92 13 55.4 31 -3.5 25.6
01:40 1015 29.97 844 24.92 13.1 55.7 32 -3.1 26.4
01:45 1015 29.97 844 24.92 13.1 55.5 32 -3.4 26
01:50 1015 29.97 844 24.92 12.9 55.3 32 -3.3 26.1
01:55 1015 29.97 844 24.92 12.9 55.3 32 -3.2 26.3
02:00 1015 29.97 844 24.92 12.8 55 33 -3.2 26.3
02:05 1015 29.97 844 24.92 12.7 54.8 34 -2.5 27.4
02:10 1015 29.97 844 24.92 12.3 54.2 35 -2.8 26.9
02:15 1015 29.97 844 24.92 12.3 54.2 34 -2.9 26.7
02:20 1015 29.97 844 24.92 12.4 54.2 34 -3 26.7
02:25 1015 29.97 844 24.92 12.4 54.3 34 -2.9 26.9
02:30 1015 29.97 844 24.92 12.3 54.2 35 -2.8 27
02:35 1015 29.97 844 24.92 12.1 53.8 35 -2.9 26.8
02:40 1015 29.97 844 24.92 12.1 53.9 34 -3.2 26.2
02:45 1015 29.97 844 24.92 12.3 54.1 34 -2.9 26.8
02:50 1015 29.97 844 24.92 12.4 54.3 34 -3.1 26.5
02:55 1015 29.97 844 24.92 12.5 54.4 32 -3.9 25
03:00 1015 29.97 844 24.92 12.8 55.1 35 -2.4 27.7
03:05 1015 29.97 844 24.92 12.6 54.6 34 -3 26.6
03:10 1015 29.97 844 24.92 12.4 54.4 34 -3.1 26.5
03:15 1015 29.97 844 24.92 12.3 54.2 35 -2.7 27.2
03:20 1015 29.97 844 24.92 12 53.6 35 -2.9 26.8
03:25 1015 29.97 844 24.92 12.1 53.8 35 -2.8 27
03:30 1015 29.97 844 24.92 12.1 53.8 36 -2.5 27.5
03:35 1015 29.97 844 24.92 11.9 53.3 37 -2.3 27.8
03:40 1015 29.97 844 24.92 11.9 53.4 37 -2.3 27.9
03:45 1015 29.97 844 24.92 11.8 53.3 37 -2.2 28.1
03:50 1015 29.97 844 24.92 11.9 53.4 36 -2.7 27.2
03:55 1015 29.97 844 24.92 12 53.7 36 -2.5 27.5
04:00 1015 29.97 844 24.92 12.1 53.8 36 -2.6 27.4
04:05 1015 29.97 844 24.92 12.1 53.7 37 -2.2 28
04:10 1015 29.97 844 24.92 12 53.6 37 -2.2 28.1
04:15 1015 29.97 844 24.92 11.7 53.1 37 -2.3 27.8
04:20 1015 29.97 844 24.92 11.8 53.3 37 -2.3 27.8
04:25 1015 29.97 844 24.92 11.8 53.2 38 -2.1 28.2
04:30 1015 29.97 844 24.92 11.8 53.2 38 -1.9 28.5
04:35 1015 29.97 845 24.95 11.6 52.8 39 -1.9 28.5
04:40 1015 29.97 844 24.92 11.4 52.4 39 -1.9 28.6
04:45 1015 29.97 844 24.92 11.2 52.2 40 -1.8 28.8
04:50 1015 29.97 844 24.92 11.1 52 39 -2.4 27.7
04:55 1015 29.97 844 24.92 11.5 52.6 39 -2 28.5
05:00 1015 29.97 844 24.92 11.4 52.6 39 -2.1 28.2
05:05 1015 29.97 844 24.92 11.4 52.5 39 -1.9 28.6
05:10 1015 29.97 844 24.92 11.3 52.4 40 -1.8 28.7
05:15 1015 29.97 845 24.95 11.5 52.6 38 -2.2 28.1
05:20 1015 29.97 845 24.95 11.7 53 39 -1.9 28.6
05:25 1015 29.97 845 24.95 11.8 53.2 38 -1.9 28.6
05:30 1015 29.97 845 24.95 12 53.5 38 -1.9 28.6
05:35 1015 29.97 845 24.95 12 53.6 38 -1.8 28.8
05:40 1015 29.97 845 24.95 11.9 53.3 39 -1.6 29.1
05:45 1016 30 845 24.95 11.6 52.9 40 -1.4 29.4
05:50 1016 30 845 24.95 11.3 52.3 41 -1.4 29.5
05:55 1016 30 845 24.95 11.2 52.2 41 -1.6 29.1
06:00 1016 30 845 24.95 11.2 52.2 42 -1.1 30
06:05 1016 30 845 24.95 11 51.7 42 -1.6 29.2
06:10 1016 30 845 24.95 10.8 51.5 43 -1.4 29.5
06:15 1016 30 845 24.95 10.7 51.3 43 -1.4 29.5
06:20 1016 30 845 24.95 11 51.7 42 -1.4 29.4
06:25 1016 30 845 24.95 11.1 52 41 -1.6 29.1
06:30 1016 30 845 24.95 11.4 52.4 41 -1.3 29.7
06:35 1016 30 845 24.95 11.3 52.4 41 -1.3 29.6
06:40 1016 30 845 24.95 11.3 52.4 41 -1.2 29.8
06:45 1016 30 845 24.95 11.4 52.5 41 -1.3 29.6
06:50 1016 30 845 24.95 11.7 53 41 -1 30.2
06:55 1016 30 845 24.95 12 53.5 40 -1.1 30.1
07:00 1016 30 845 24.95 12.2 53.9 41 -0.6 30.9
07:05 1016 30 846 24.98 12 53.6 42 -0.3 31.4
07:10 1016 30 845 24.95 11.9 53.4 42 -0.5 31.1
07:15 1016 30 846 24.98 12 53.7 44 0.3 32.5
07:20 1016 30 846 24.98 12.3 54.2 44 0.5 32.8
07:25 1016 30 846 24.98 12.3 54.1 47 1.3 34.3
07:30 1017 30.03 846 24.98 12.4 54.3 46 1.1 34
07:35 1017 30.03 846 24.98 12.5 54.6 48 1.9 35.5
07:40 1017 30.03 846 24.98 12.5 54.5 51 2.6 36.7
07:45 1017 30.03 846 24.98 12.6 54.6 44 0.7 33.2
07:50 1017 30.03 846 24.98 13.1 55.6 48 2.5 36.5
07:55 1017 30.03 846 24.98 13.6 56.5 45 1.9 35.4
08:00 1017 30.03 846 24.98 14.2 57.6 41 1.4 34.5
08:05 1017 30.03 846 24.98 15 58.9 39 1.1 33.9
08:10 1017 30.03 846 24.98 15.3 59.5 39 1.5 34.7
08:15 1017 30.03 846 24.98 15.3 59.5 41 2.2 35.9
08:20 1017 30.03 846 24.98 15.6 60.1 39 2 35.5
08:25 1017 30.03 846 24.98 16.4 61.5 37 1.9 35.3
08:30 1017 30.03 846 24.98 16.8 62.2 36 1.8 35.3
08:35 1017 30.03 846 24.98 17.3 63.1 33 1 33.8
08:40 1017 30.03 846 24.98 17.9 64.3 33 1.4 34.5
08:45 1017 30.03 846 24.98 18 64.5 32 1.4 34.6
08:50 1017 30.03 846 24.98 18.5 65.2 33 1.8 35.3
08:55 1017 30.03 846 24.98 18.3 64.9 33 1.9 35.4
09:00 1017 30.03 846 24.98 18.6 65.5 33 2.1 35.8
09:05 1017 30.03 846 24.98 18.1 64.7 33 1.7 35.1
09:10 1017 30.03 846 24.98 18.8 65.9 31 1.4 34.4
09:15 1017 30.03 846 24.98 19.4 67 30 1.4 34.6
09:20 1017 30.03 846 24.98 19.5 67.2 30 1.5 34.7
09:25 1017 30.03 846 24.98 19.3 66.7 30 1.3 34.4
09:30 1017 30.03 846 24.98 19.7 67.4 32 2.5 36.5
09:35 1017 30.03 846 24.98 20.4 68.7 30 2.3 36.1
09:40 1017 30.03 846 24.98 20.5 68.8 25 0.2 32.4
09:45 1017 30.03 846 24.98 19.8 67.6 27 0.3 32.5
09:50 1017 30.03 846 24.98 20 68 26 0 32.1
09:55 1017 30.03 846 24.98 20.7 69.2 26 0.8 33.4
10:00 1017 30.03 846 24.98 20.6 69 27 1 33.8
10:05 1017 30.03 846 24.98 20.2 68.3 28 1.2 34.1
10:10 1017 30.03 846 24.98 20.3 68.5 26 0.5 32.9
10:15 1017 30.03 846 24.98 20 68 27 0.8 33.4
10:20 1017 30.03 846 24.98 19.9 67.9 29 1.6 34.9
10:25 1017 30.03 846 24.98 19.6 67.3 28 0.7 33.3
10:30 1017 30.03 846 24.98 20.2 68.4 28 1.4 34.5
10:35 1017 30.03 846 24.98 20.5 68.8 29 1.8 35.3
10:40 1017 30.03 846 24.98 20.6 69.1 27 1.1 34
10:45 1017 30.03 846 24.98 21 69.7 26 0.9 33.7
10:50 1017 30.03 846 24.98 20.3 68.5 27 0.7 33.2
10:55 1017 30.03 846 24.98 20.8 69.4 27 1.1 34
11:00 1017 30.03 846 24.98 21.4 70.4 26 1.3 34.4
11:05 1017 30.03 846 24.98 21.2 70.1 25 0.5 32.8
11:10 1017 30.03 846 24.98 22 71.6 25 1.2 34.2
11:15 1017 30.03 846 24.98 21.2 70.2 26 1.1 34
11:20 1017 30.03 846 24.98 20.3 68.6 27 0.7 33.2
11:25 1017 30.03 846 24.98 21 69.8 25 0.5 32.8
11:30 1017 30.03 846 24.98 21.9 71.4 24 0.8 33.4
11:35 1017 30.03 846 24.98 22.6 72.6 26 2.3 36.1
11:40 1017 30.03 846 24.98 21.7 71 25 0.9 33.5
11:45 1017 30.03 846 24.98 20.7 69.3 26 0.7 33.2
11:50 1017 30.03 846 24.98 21.4 70.5 24 0.1 32.2
11:55 1017 30.03 846 24.98 21.3 70.3 25 0.8 33.5
12:00 1017 30.03 846 24.98 21.2 70.2 25 0.8 33.5
12:05 1017 30.03 846 24.98 21.2 70.1 25 0.3 32.5
12:10 1017 30.03 846 24.98 22.2 71.9 22 -0 31.9
12:15 1017 30.03 846 24.98 21.8 71.2 24 0.5 32.9
12:20 1017 30.03 846 24.98 21 69.9 24 0 32
12:25 1017 30.03 846 24.98 20.9 69.6 25 0.2 32.3
12:30 1017 30.03 846 24.98 21.8 71.3 23 -0 32
12:35 1017 30.03 846 24.98 22.4 72.2 23 0.6 33
12:40 1017 30.03 846 24.98 22.2 71.9 24 0.7 33.2
12:45 1017 30.03 846 24.98 22.7 72.8 23 1 33.7
12:50 1017 30.03 846 24.98 22.7 72.9 24 1.3 34.3
12:55 1017 30.03 846 24.98 23.7 74.6 21 0.5 32.8
13:00 1017 30.03 846 24.98 23.2 73.8 23 0.9 33.7
13:05 1017 30.03 846 24.98 22.5 72.6 24 1 33.8
13:10 1016 30 846 24.98 23.4 74.1 23 1.1 34
13:15 1016 30 846 24.98 24.6 76.2 20 0.6 33.2
13:20 1016 30 846 24.98 24.6 76.2 22 1.6 34.9
13:25 1016 30 846 24.98 24.2 75.5 22 1.3 34.4
13:30 1016 30 846 24.98 24.5 76.1 21 1.2 34.1
13:35 1016 30 845 24.95 24.6 76.2 21 0.9 33.6
13:40 1016 30 845 24.95 25.5 78 20 1.5 34.6
13:45 1016 30 845 24.95 24.2 75.6 23 2.2 36
13:50 1016 30 845 24.95 23.7 74.6 22 1.1 33.9
13:55 1016 30 845 24.95 24.2 75.6 22 1.6 34.8
14:00 1016 30 845 24.95 24.6 76.2 21 1.3 34.4
14:05 1016 30 845 24.95 23.9 75 24 2.1 35.7
14:10 1016 30 845 24.95 24 75.1 22 1.1 34
14:15 1016 30 845 24.95 24.4 76 21 1.1 34
14:20 1016 30 845 24.95 23.9 75 21 0.4 32.7
14:25 1016 30 845 24.95 25 76.9 21 1.4 34.5
14:30 1016 30 845 24.95 24.3 75.8 23 1.8 35.3
14:35 1016 30 845 24.95 23.5 74.3 23 1.4 34.5
14:40 1016 30 845 24.95 23.7 74.7 21 0.5 32.9
14:45 1016 30 845 24.95 24 75.3 22 1.3 34.3
14:50 1016 30 845 24.95 24.6 76.2 21 1.1 33.9
14:55 1016 30 845 24.95 24.8 76.7 20 0.9 33.6
15:00 1016 30 845 24.95 24.6 76.2 21 1.4 34.5
15:05 1016 30 845 24.95 24.7 76.5 21 1.2 34.2
15:10 1016 30 845 24.95 23.4 74.2 22 0.9 33.7
15:15 1016 30 845 24.95 22.4 72.3 23 0.3 32.5
15:20 1016 30 845 24.95 22 71.6 23 0 32.1
15:25 1016 30 845 24.95 23 73.4 23 0.8 33.5
15:30 1016 30 845 24.95 23.2 73.7 24 1.4 34.6
15:35 1016 30 845 24.95 22.6 72.6 26 2.2 35.9
15:40 1016 30 845 24.95 22.5 72.5 25 1.7 35.1
15:45 1016 30 845 24.95 22.3 72.1 25 1.6 34.9
15:50 1016 30 845 24.95 22.2 72 25 1.4 34.5
15:55 1016 30 845 24.95 22.3 72.2 24 1.1 34
16:00 1016 30 845 24.95 22.5 72.5 25 1.4 34.6
16:05 1016 30 845 24.95 22.3 72.1 24 0.9 33.7
16:10 1016 30 845 24.95 22.4 72.2 25 1.8 35.2
16:15 1016 30 845 24.95 22.1 71.8 25 1.4 34.5
16:20 1016 30 845 24.95 22 71.5 25 1.4 34.4
16:25 1016 30 845 24.95 21.9 71.5 25 1.2 34.2
16:30 1016 30 845 24.95 21.8 71.3 27 2.2 35.9
16:35 1016 30 845 24.95 21.4 70.5 29 2.6 36.7
16:40 1016 30 845 24.95 21 69.7 30 3.1 37.7
16:45 1016 30 845 24.95 21 69.7 31 3.3 37.9
16:50 1016 30 845 24.95 20.9 69.6 31 3.2 37.7
16:55 1016 30 845 24.95 21.1 70 30 2.8 37.1
17:00 1016 30 845 24.95 21.4 70.5 29 2.6 36.7
17:05 1016 30 845 24.95 21.3 70.4 28 2.3 36.1
17:10 1016 30 845 24.95 21.4 70.5 28 2.6 36.6
17:15 1016 30 845 24.95 21.3 70.3 27 1.8 35.3
17:20 1016 30 845 24.95 21.4 70.5 28 2.4 36.3
17:25 1016 30 845 24.95 21.3 70.4 28 2 35.7
17:30 1016 30 846 24.98 21.1 69.9 29 2.6 36.7
17:35 1017 30.03 846 24.98 21.1 70 31 3.5 38.2
17:40 1017 30.03 846 24.98 20.7 69.3 31 3.2 37.7
17:45 1017 30.03 846 24.98 20.1 68.2 36 4.8 40.7
17:50 1017 30.03 846 24.98 19.2 66.6 41 5.7 42.2
17:55 1017 30.03 846 24.98 19.5 67 39 5.3 41.5
18:00 1017 30.03 846 24.98 19.3 66.8 39 5.2 41.4
18:05 1017 30.03 846 24.98 19.1 66.3 40 5.5 41.9
18:10 1017 30.03 846 24.98 19.4 66.9 39 5.2 41.4
18:15 1017 30.03 846 24.98 19.5 67 40 5.8 42.4
18:20 1017 30.03 846 24.98 19.6 67.3 39 5.3 41.5
18:25 1017 30.03 846 24.98 19.7 67.4 39 5.6 42.1
18:30 1016 30 846 24.98 19.8 67.6 42 6.8 44.2
18:35 1016 30 846 24.98 19.3 66.8 41 5.9 42.6
18:40 1016 30 846 24.98 18.6 65.5 44 6.3 43.4
18:45 1016 30 846 24.98 18.6 65.5 45 6.7 44
18:50 1016 30 846 24.98 18.6 65.4 44 6.2 43.2
18:55 1016 30 846 24.98 18.5 65.3 43 5.7 42.3
19:00 1016 30 846 24.98 18.7 65.6 42 5.8 42.4
19:05 1016 30 846 24.98 18.9 66.1 41 5.6 42
19:10 1016 30 846 24.98 19.1 66.3 40 5.5 41.8
19:15 1016 30 846 24.98 19 66.1 40 5.4 41.7
19:20 1016 30 846 24.98 18.7 65.7 42 5.7 42.2
19:25 1016 30 846 24.98 18.5 65.3 42 5.6 42
19:30 1016 30 846 24.98 18.4 65.1 43 5.5 42
19:35 1016 30 846 24.98 18.3 65 43 5.5 41.9
19:40 1016 30 846 24.98 18.3 64.9 42 5.4 41.8
19:45 1016 30 846 24.98 18.2 64.8 42 5.4 41.6
19:50 1016 30 846 24.98 18.2 64.7 42 5.2 41.3
19:55 1016 30 846 24.98 18.2 64.7 42 5.1 41.1
20:00 1016 30 846 24.98 18.2 64.8 41 5 41
20:05 1016 30 846 24.98 18.2 64.7 42 5.2 41.3
20:10 1016 30 846 24.98 18.2 64.7 41 4.9 40.8
20:15 1017 30.03 846 24.98 18.2 64.7 42 5.1 41.2
20:20 1017 30.03 846 24.98 18.1 64.6 42 5.2 41.3
20:25 1017 30.03 846 24.98 18 64.4 41 4.8 40.7
20:30 1017 30.03 846 24.98 18.1 64.5 42 5.2 41.4
20:35 1017 30.03 846 24.98 18.3 65 40 4.8 40.6
20:40 1017 30.03 846 24.98 17.9 64.2 44 5.7 42.2
20:45 1018 30.06 847 25.01 17.6 63.6 49 6.8 44.3
20:50 1018 30.06 847 25.01 16.8 62.3 54 7.6 45.7
20:55 1018 30.06 847 25.01 15.9 60.7 62 8.8 47.9
21:00 1018 30.06 847 25.01 15.4 59.8 55 6.5 43.7
21:05 1018 30.06 847 25.01 15.4 59.7 49 4.8 40.6
21:10 1018 30.06 847 25.01 15.8 60.5 60 8.1 46.5
21:15 1018 30.06 847 25.01 14.8 58.7 62 7.7 45.8
21:20 1018 30.06 847 25.01 14.4 58 64 7.8 46.1
21:25 1018 30.06 847 25.01 14.2 57.5 63 7.4 45.3
21:30 1018 30.06 847 25.01 14.3 57.7 63 7.4 45.3
21:35 1018 30.06 847 25.01 14.3 57.7 62 7.2 44.9
21:40 1018 30.06 847 25.01 14.1 57.3 68 8.4 47.1
21:45 1018 30.06 848 25.04 13.6 56.5 71 8.4 47.2
21:50 1018 30.06 848 25.04 13.5 56.2 68 7.8 46
21:55 1019 30.09 848 25.04 13.4 56 70 8.1 46.5
22:00 1019 30.09 848 25.04 13.3 55.9 68 7.7 45.8
22:05 1019 30.09 848 25.04 13.6 56.4 65 7.2 45
22:10 1019 30.09 848 25.04 13.5 56.4 65 7.2 45
22:15 1019 30.09 848 25.04 13.5 56.4 65 7.2 45
22:20 1019 30.09 848 25.04 13.5 56.3 65 7.2 44.9
22:25 1019 30.09 848 25.04 13.4 56.2 67 7.5 45.5
22:30 1019 30.09 848 25.04 13.1 55.6 69 7.5 45.5
22:35 1019 30.09 848 25.04 13.1 55.5 68 7.3 45.1
22:40 1019 30.09 848 25.04 13.1 55.5 68 7.3 45.2
22:45 1019 30.09 848 25.04 12.9 55.3 69 7.4 45.3
22:50 1019 30.09 848 25.04 12.8 55.1 69 7.3 45.2
22:55 1019 30.09 848 25.04 12.8 55 70 7.4 45.3
23:00 1019 30.09 848 25.04 12.6 54.7 70 7.3 45.2
23:05 1019 30.09 848 25.04 12.6 54.7 69 7.2 44.9
23:10 1019 30.09 848 25.04 12.8 55 67 7 44.5
23:15 1019 30.09 848 25.04 13.1 55.5 65 6.8 44.3
23:20 1019 30.09 848 25.04 13.3 56 65 6.9 44.4
23:25 1019 30.09 848 25.04 13.4 56.1 65 6.9 44.5
23:30 1019 30.09 848 25.04 13.4 56.1 64 6.8 44.2
23:35 1019 30.09 848 25.04 13.4 56.2 63 6.6 43.9
23:40 1019 30.09 848 25.04 13.5 56.3 64 6.9 44.4
23:45 1019 30.09 848 25.04 13.4 56 65 7 44.6
23:50 1019 30.09 848 25.04 13.3 56 65 7 44.6
23:55 1019 30.09 848 25.04 13.4 56 65 6.9 44.5
24:00 1019 30.09 848 25.04 13.4 56 64 6.7 44